createdAt,value
2019-03-21T00:01:29.730Z,2.59
2019-03-21T00:04:02.279Z,2.52
2019-03-21T00:06:32.115Z,2.45
2019-03-21T00:09:02.057Z,2.39
2019-03-21T00:11:59.183Z,2.35
2019-03-21T00:14:56.397Z,2.31
2019-03-21T00:17:29.188Z,2.41
2019-03-21T00:19:59.104Z,2.58
2019-03-21T00:22:28.951Z,2.62
2019-03-21T00:24:58.766Z,2.66
2019-03-21T00:27:28.641Z,2.66
2019-03-21T00:29:58.810Z,2.65
2019-03-21T00:32:28.651Z,2.63
2019-03-21T00:34:58.455Z,2.63
2019-03-21T00:37:28.301Z,2.63
2019-03-21T00:39:58.143Z,2.60
2019-03-21T00:42:27.982Z,2.60
2019-03-21T00:44:57.797Z,2.57
2019-03-21T00:47:27.651Z,2.59
2019-03-21T00:49:57.587Z,2.64
2019-03-21T00:52:27.429Z,2.71
2019-03-21T00:54:57.318Z,2.77
2019-03-21T00:57:27.203Z,2.89
2019-03-21T00:59:57.052Z,2.91
2019-03-21T01:02:26.881Z,2.94
2019-03-21T01:04:56.735Z,3.04
2019-03-21T01:07:26.560Z,3.06
2019-03-21T01:09:56.512Z,3.08
2019-03-21T01:12:26.383Z,3.09
2019-03-21T01:14:56.167Z,3.10
2019-03-21T01:17:26.004Z,3.10
2019-03-21T01:19:55.842Z,3.08
2019-03-21T01:22:25.703Z,3.06
2019-03-21T01:24:55.597Z,3.08
2019-03-21T01:27:25.542Z,3.11
2019-03-21T01:29:55.528Z,3.11
2019-03-21T01:32:25.487Z,3.22
2019-03-21T01:34:55.480Z,3.27
2019-03-21T01:37:25.327Z,3.35
2019-03-21T01:39:55.300Z,3.41
2019-03-21T01:42:25.279Z,3.48
2019-03-21T01:44:55.171Z,3.57
2019-03-21T01:47:25.028Z,3.57
2019-03-21T01:49:54.935Z,3.53
2019-03-21T01:52:24.861Z,3.52
2019-03-21T01:54:54.941Z,3.60
2019-03-21T01:57:24.838Z,3.59
2019-03-21T01:59:54.791Z,3.61
2019-03-21T02:02:24.726Z,3.59
2019-03-21T02:04:54.878Z,3.63
2019-03-21T02:07:24.682Z,3.58
2019-03-21T02:09:54.717Z,3.55
2019-03-21T02:12:24.550Z,3.51
2019-03-21T02:14:54.375Z,3.54
2019-03-21T02:17:24.259Z,3.52
2019-03-21T02:19:54.189Z,3.56
2019-03-21T02:22:24.032Z,3.61
2019-03-21T02:24:54.071Z,3.71
2019-03-21T02:27:23.878Z,3.75
2019-03-21T02:29:53.654Z,3.72
2019-03-21T02:32:23.525Z,3.88
2019-03-21T02:34:53.379Z,3.95
2019-03-21T02:37:23.230Z,4.17
2019-03-21T02:39:59.284Z,4.25
2019-03-21T02:42:24.677Z,4.26
2019-03-21T02:45:07.699Z,4.26
2019-03-21T02:47:26.074Z,4.31
2019-03-21T02:49:55.888Z,4.33
2019-03-21T02:52:26.125Z,4.36
2019-03-21T02:54:55.964Z,4.33
2019-03-21T02:57:25.911Z,4.34
2019-03-21T02:59:55.939Z,4.34
2019-03-21T03:02:25.946Z,4.34
2019-03-21T03:04:56.035Z,4.44
2019-03-21T03:07:25.962Z,4.57
2019-03-21T03:09:55.852Z,4.59
2019-03-21T03:12:26.061Z,4.60
2019-03-21T03:14:55.838Z,4.59
2019-03-21T03:17:25.656Z,4.58
2019-03-21T03:19:55.552Z,4.52
2019-03-21T03:22:25.350Z,4.51
2019-03-21T03:24:55.448Z,4.52
2019-03-21T03:27:25.635Z,4.44
2019-03-21T03:29:55.472Z,4.30
2019-03-21T03:32:25.450Z,4.21
2019-03-21T03:34:55.267Z,4.11
2019-03-21T03:37:25.077Z,4.04
2019-03-21T03:39:55.062Z,4.03
2019-03-21T03:42:24.890Z,3.95
2019-03-21T03:44:54.999Z,3.92
2019-03-21T03:47:24.956Z,3.89
2019-03-21T03:49:54.841Z,3.83
2019-03-21T03:52:24.989Z,3.87
2019-03-21T03:54:54.794Z,3.86
2019-03-21T03:57:24.608Z,3.84
2019-03-21T03:59:54.525Z,3.80
2019-03-21T04:02:24.347Z,3.85
2019-03-21T04:04:54.200Z,3.78
2019-03-21T04:07:24.123Z,3.80
2019-03-21T04:09:54.134Z,3.79
2019-03-21T04:12:24.155Z,3.81
2019-03-21T04:14:54.016Z,3.89
2019-03-21T04:17:23.855Z,3.92
2019-03-21T04:19:54.059Z,4.00
2019-03-21T04:22:23.920Z,4.18
2019-03-21T04:24:53.794Z,4.36
2019-03-21T04:27:23.935Z,4.49
2019-03-21T04:29:54.159Z,4.45
2019-03-21T04:32:23.985Z,4.47
2019-03-21T04:34:54.194Z,4.57
2019-03-21T04:37:24.356Z,4.60
2019-03-21T04:39:54.193Z,4.65
2019-03-21T04:42:24.318Z,4.70
2019-03-21T04:44:54.173Z,4.75
2019-03-21T04:47:23.992Z,4.78
2019-03-21T04:49:53.971Z,4.76
2019-03-21T04:52:23.776Z,4.74
2019-03-21T04:54:53.633Z,4.77
2019-03-21T04:57:23.801Z,4.78
2019-03-21T04:59:53.717Z,4.78
2019-03-21T05:02:23.688Z,4.77
2019-03-21T05:04:53.543Z,4.80
2019-03-21T05:07:23.381Z,4.81
2019-03-21T05:09:53.223Z,4.78
2019-03-21T05:12:23.046Z,4.82
2019-03-21T05:14:52.948Z,4.86
2019-03-21T05:17:22.792Z,4.93
2019-03-21T05:19:52.619Z,5.03
2019-03-21T05:22:22.522Z,5.02
2019-03-21T05:24:52.334Z,5.05
2019-03-21T05:27:22.120Z,5.04
2019-03-21T05:29:52.134Z,5.04
2019-03-21T05:32:22.007Z,5.09
2019-03-21T05:34:51.882Z,5.21
2019-03-21T05:37:21.791Z,5.30
2019-03-21T05:39:51.672Z,5.43
2019-03-21T05:42:23.182Z,5.59
2019-03-21T05:44:52.964Z,5.70
2019-03-21T05:47:22.756Z,5.77
2019-03-21T05:49:52.628Z,5.78
2019-03-21T05:52:22.482Z,5.88
2019-03-21T05:54:52.350Z,5.95
2019-03-21T05:57:22.120Z,6.14
2019-03-21T05:59:51.902Z,6.23
2019-03-21T06:02:21.772Z,6.32
2019-03-21T06:04:51.679Z,6.40
2019-03-21T06:07:38.283Z,6.55
2019-03-21T06:10:10.600Z,6.65
2019-03-21T06:12:46.723Z,6.70
2019-03-21T06:15:19.457Z,6.78
2019-03-21T06:18:05.954Z,6.78
2019-03-21T06:20:55.210Z,6.79
2019-03-21T06:23:59.225Z,6.86
2019-03-21T06:26:51.619Z,7.01
2019-03-21T06:29:21.536Z,7.09
2019-03-21T06:31:51.586Z,7.10
2019-03-21T06:34:21.576Z,7.15
2019-03-21T06:36:51.458Z,7.18
2019-03-21T06:39:21.264Z,7.25
2019-03-21T06:41:51.189Z,7.30
2019-03-21T06:44:21.044Z,7.33
2019-03-21T06:46:51.241Z,7.40
2019-03-21T06:49:21.177Z,7.39
2019-03-21T06:51:51.088Z,7.40
2019-03-21T06:54:21.225Z,7.42
2019-03-21T06:56:51.505Z,7.37
2019-03-21T06:59:21.560Z,7.38
2019-03-21T07:01:51.423Z,7.43
2019-03-21T07:04:21.258Z,7.48
2019-03-21T07:06:51.147Z,7.54
2019-03-21T07:09:21.037Z,7.55
2019-03-21T07:11:50.909Z,7.56
2019-03-21T07:14:20.711Z,7.58
2019-03-21T07:17:00.031Z,7.66
2019-03-21T07:19:22.218Z,7.78
2019-03-21T07:21:52.340Z,7.79
2019-03-21T07:24:22.369Z,7.84
2019-03-21T07:26:52.156Z,7.78
2019-03-21T07:29:22.126Z,7.85
2019-03-21T07:31:52.190Z,7.83
2019-03-21T07:34:22.005Z,7.84
2019-03-21T07:36:51.969Z,7.86
2019-03-21T07:39:22.088Z,7.96
2019-03-21T07:41:51.938Z,7.94
2019-03-21T07:44:22.069Z,8.07
2019-03-21T07:46:51.905Z,8.18
2019-03-21T07:49:21.737Z,8.16
2019-03-21T07:51:51.530Z,8.22
2019-03-21T07:54:21.329Z,8.38
2019-03-21T07:56:51.189Z,8.35
2019-03-21T07:59:21.203Z,8.37
2019-03-21T08:01:51.314Z,8.42
2019-03-21T08:04:21.234Z,8.47
2019-03-21T08:06:51.281Z,8.44
2019-03-21T08:09:21.153Z,8.48
2019-03-21T08:11:50.949Z,8.49
2019-03-21T08:14:20.972Z,8.49
2019-03-21T08:16:50.854Z,8.50
2019-03-21T08:19:20.702Z,8.47
2019-03-21T08:21:50.548Z,8.54
2019-03-21T08:24:20.443Z,8.45
2019-03-21T08:26:50.272Z,8.53
2019-03-21T08:29:20.085Z,8.98
2019-03-21T08:31:49.904Z,9.42
2019-03-21T08:34:19.824Z,9.72
2019-03-21T08:36:49.684Z,9.95
2019-03-21T08:39:19.495Z,10.09
2019-03-21T08:41:49.317Z,10.20
2019-03-21T08:44:19.149Z,10.32
2019-03-21T08:46:49.024Z,10.34
2019-03-21T08:49:18.894Z,10.35
2019-03-21T08:51:48.767Z,10.31
2019-03-21T08:54:18.654Z,10.55
2019-03-21T08:56:48.584Z,10.59
2019-03-21T08:59:21.435Z,10.88
2019-03-21T09:01:51.279Z,11.01
2019-03-21T09:04:21.138Z,11.28
2019-03-21T09:06:52.751Z,11.41
2019-03-21T09:09:22.846Z,11.41
2019-03-21T09:11:52.684Z,11.67
2019-03-21T09:14:22.584Z,11.74
2019-03-21T09:16:52.549Z,11.77
2019-03-21T09:19:22.343Z,12.03
2019-03-21T09:21:52.099Z,12.28
2019-03-21T09:24:21.948Z,12.56
2019-03-21T09:26:51.815Z,12.97
2019-03-21T09:29:21.741Z,12.83
2019-03-21T09:31:51.610Z,12.77
2019-03-21T09:34:21.526Z,12.91
2019-03-21T09:36:51.359Z,12.97
2019-03-21T09:39:21.169Z,13.04
2019-03-21T09:41:51.031Z,13.02
2019-03-21T09:44:28.008Z,13.22
2019-03-21T09:46:57.910Z,13.23
2019-03-21T09:49:27.780Z,12.86
2019-03-21T09:51:57.606Z,12.50
2019-03-21T09:54:27.431Z,12.15
2019-03-21T09:56:57.323Z,12.11
2019-03-21T09:59:27.203Z,12.24
2019-03-21T10:01:57.098Z,12.12
2019-03-21T10:04:27.100Z,12.12
2019-03-21T10:06:56.944Z,11.99
2019-03-21T10:09:26.842Z,11.88
2019-03-21T10:11:56.650Z,12.09
2019-03-21T10:14:26.476Z,12.15
2019-03-21T10:16:56.394Z,12.45
2019-03-21T10:19:26.266Z,12.67
2019-03-21T10:21:56.161Z,12.87
2019-03-21T10:24:26.043Z,12.70
2019-03-21T10:26:55.889Z,12.75
2019-03-21T10:29:25.716Z,12.79
2019-03-21T10:31:55.540Z,12.82
2019-03-21T10:34:25.518Z,12.79
2019-03-21T10:36:55.807Z,12.95
2019-03-21T10:39:25.707Z,12.92
2019-03-21T10:41:55.928Z,13.01
2019-03-21T10:44:25.767Z,13.08
2019-03-21T10:46:55.676Z,13.06
2019-03-21T10:49:25.558Z,13.05
2019-03-21T10:51:55.576Z,13.08
2019-03-21T10:54:25.371Z,13.54
2019-03-21T10:56:55.396Z,14.20
2019-03-21T10:59:25.245Z,14.55
2019-03-21T11:02:06.631Z,14.76
2019-03-21T11:04:26.852Z,14.69
2019-03-21T11:07:01.746Z,14.11
2019-03-21T11:09:32.665Z,13.58
2019-03-21T11:12:02.588Z,13.43
2019-03-21T11:14:32.505Z,13.30
2019-03-21T11:17:02.314Z,13.27
2019-03-21T11:19:32.144Z,13.42
2019-03-21T11:22:06.297Z,13.58
2019-03-21T11:24:33.669Z,13.66
2019-03-21T11:27:03.485Z,13.91
2019-03-21T11:29:33.501Z,14.23
2019-03-21T11:32:03.353Z,14.25
2019-03-21T11:34:33.364Z,14.22
2019-03-21T11:37:03.240Z,14.12
2019-03-21T11:39:33.115Z,14.63
2019-03-21T11:42:03.035Z,14.92
2019-03-21T11:44:32.880Z,14.79
2019-03-21T11:47:02.770Z,14.47
2019-03-21T11:49:32.695Z,14.34
2019-03-21T11:52:02.584Z,14.14
2019-03-21T11:54:32.540Z,14.60
2019-03-21T11:57:02.465Z,14.55
2019-03-21T11:59:46.126Z,15.01
2019-03-21T12:02:03.946Z,15.38
2019-03-21T12:04:33.818Z,15.10
2019-03-21T12:07:03.960Z,15.13
2019-03-21T12:09:33.936Z,15.07
2019-03-21T12:12:03.855Z,14.89
2019-03-21T12:14:33.839Z,14.81
2019-03-21T12:17:03.812Z,14.54
2019-03-21T12:19:33.619Z,14.33
2019-03-21T12:22:03.393Z,14.35
2019-03-21T12:24:33.336Z,14.69
2019-03-21T12:27:03.239Z,14.68
2019-03-21T12:29:33.081Z,14.94
2019-03-21T12:32:02.897Z,15.10
2019-03-21T12:34:32.818Z,14.99
2019-03-21T12:37:02.902Z,14.97
2019-03-21T12:39:32.853Z,14.83
2019-03-21T12:42:02.743Z,14.72
2019-03-21T12:44:32.651Z,14.83
2019-03-21T12:47:02.513Z,14.86
2019-03-21T12:49:32.294Z,14.64
2019-03-21T12:52:02.150Z,14.72
2019-03-21T12:54:32.024Z,14.52
2019-03-21T12:57:01.857Z,14.31
2019-03-21T12:59:31.744Z,13.68
2019-03-21T13:02:01.625Z,13.88
2019-03-21T13:04:31.462Z,13.85
2019-03-21T13:07:01.305Z,13.87
2019-03-21T13:09:31.179Z,13.92
2019-03-21T13:12:00.987Z,13.83
2019-03-21T13:14:30.851Z,13.55
2019-03-21T13:17:00.801Z,13.28
2019-03-21T13:19:30.672Z,13.19
2019-03-21T13:22:00.576Z,13.13
2019-03-21T13:24:30.565Z,13.13
2019-03-21T13:27:00.479Z,13.19
2019-03-21T13:29:30.368Z,13.42
2019-03-21T13:32:00.210Z,13.39
2019-03-21T13:34:30.243Z,13.44
2019-03-21T13:37:00.067Z,13.49
2019-03-21T13:39:30.094Z,13.51
2019-03-21T13:42:00.103Z,13.54
2019-03-21T13:44:30.051Z,13.63
2019-03-21T13:47:00.032Z,13.43
2019-03-21T13:49:29.914Z,13.19
2019-03-21T13:51:59.781Z,13.06
2019-03-21T13:54:29.721Z,12.79
2019-03-21T13:56:59.637Z,12.60
2019-03-21T13:59:29.673Z,12.44
2019-03-21T14:01:59.801Z,12.62
2019-03-21T14:04:29.622Z,12.42
2019-03-21T14:06:59.644Z,12.37
2019-03-21T14:09:29.624Z,12.34
2019-03-21T14:11:59.662Z,12.27
2019-03-21T14:14:29.781Z,12.40
2019-03-21T14:16:59.659Z,12.51
2019-03-21T14:19:29.457Z,12.70
2019-03-21T14:21:59.271Z,12.78
2019-03-21T14:24:29.082Z,12.63
2019-03-21T14:26:58.977Z,12.62
2019-03-21T14:29:28.998Z,12.56
2019-03-21T14:31:58.867Z,12.63
2019-03-21T14:34:28.779Z,12.72
2019-03-21T14:36:58.578Z,12.64
2019-03-21T14:39:28.413Z,12.71
2019-03-21T14:41:58.315Z,12.70
2019-03-21T14:44:28.142Z,12.58
2019-03-21T14:46:58.010Z,12.46
2019-03-21T14:49:27.929Z,12.35
2019-03-21T14:51:57.786Z,12.30
2019-03-21T14:54:27.728Z,11.81
2019-03-21T14:56:57.597Z,11.98
2019-03-21T14:59:27.394Z,12.02
2019-03-21T15:01:57.245Z,11.96
2019-03-21T15:04:27.043Z,11.96
2019-03-21T15:06:56.963Z,11.90
2019-03-21T15:09:26.853Z,12.01
2019-03-21T15:11:56.760Z,12.06
2019-03-21T15:14:26.657Z,11.97
2019-03-21T15:16:56.581Z,11.99
2019-03-21T15:19:26.424Z,11.90
2019-03-21T15:21:56.545Z,11.95
2019-03-21T15:24:26.761Z,11.91
2019-03-21T15:26:56.818Z,11.95
2019-03-21T15:29:26.969Z,11.75
2019-03-21T15:32:00.628Z,11.48
2019-03-21T15:34:30.754Z,11.47
2019-03-21T15:37:00.673Z,11.32
2019-03-21T15:39:30.620Z,11.29
2019-03-21T15:42:00.472Z,11.18
2019-03-21T15:44:30.364Z,11.09
2019-03-21T15:47:00.176Z,11.10
2019-03-21T15:49:30.013Z,11.10
2019-03-21T15:51:59.779Z,11.12
2019-03-21T15:54:29.586Z,11.07
2019-03-21T15:56:59.491Z,11.05
2019-03-21T15:59:29.329Z,10.92
2019-03-21T16:01:59.189Z,10.92
2019-03-21T16:04:29.059Z,10.92
2019-03-21T16:06:58.973Z,10.98
2019-03-21T16:09:28.784Z,10.98
2019-03-21T16:11:58.683Z,10.92
2019-03-21T16:14:28.503Z,10.86
2019-03-21T16:16:58.313Z,10.89
2019-03-21T16:19:28.243Z,10.93
2019-03-21T16:21:58.124Z,10.94
2019-03-21T16:24:27.965Z,10.90
2019-03-21T16:26:57.883Z,10.90
2019-03-21T16:29:27.697Z,10.87
2019-03-21T16:31:57.560Z,10.81
2019-03-21T16:34:27.658Z,10.81
2019-03-21T16:36:57.493Z,10.73
2019-03-21T16:39:27.285Z,10.62
2019-03-21T16:41:57.122Z,10.45
2019-03-21T16:44:26.886Z,10.43
2019-03-21T16:46:56.757Z,10.46
2019-03-21T16:49:26.686Z,10.42
2019-03-21T16:51:56.554Z,10.40
2019-03-21T16:54:26.460Z,10.34
2019-03-21T16:56:56.245Z,10.29
2019-03-21T16:59:26.161Z,10.26
2019-03-21T17:01:56.004Z,10.22
2019-03-21T17:04:25.827Z,10.25
2019-03-21T17:06:55.686Z,10.25
2019-03-21T17:09:25.610Z,10.27
2019-03-21T17:11:55.547Z,10.27
2019-03-21T17:14:25.437Z,10.26
2019-03-21T17:16:55.397Z,10.17
2019-03-21T17:19:25.211Z,10.10
2019-03-21T17:21:55.011Z,10.03
2019-03-21T17:24:29.556Z,10.00
2019-03-21T17:26:56.474Z,9.96
2019-03-21T17:29:26.369Z,9.91
2019-03-21T17:31:56.241Z,9.83
2019-03-21T17:34:26.109Z,9.81
2019-03-21T17:36:56.069Z,9.85
2019-03-21T17:39:25.936Z,9.85
2019-03-21T17:41:55.768Z,9.86
2019-03-21T17:44:25.550Z,9.82
2019-03-21T17:46:55.388Z,9.81
2019-03-21T17:49:25.249Z,9.82
2019-03-21T17:51:55.111Z,9.81
2019-03-21T17:54:24.930Z,9.83
2019-03-21T17:56:54.743Z,9.84
2019-03-21T17:59:24.610Z,9.83
2019-03-21T18:01:54.730Z,9.81
2019-03-21T18:04:24.567Z,9.74
2019-03-21T18:06:54.372Z,9.72
2019-03-21T18:09:24.218Z,9.69
2019-03-21T18:11:54.031Z,9.71
2019-03-21T18:14:23.918Z,9.79
2019-03-21T18:16:53.798Z,9.84
2019-03-21T18:19:23.624Z,9.89
2019-03-21T18:21:53.492Z,9.89
2019-03-21T18:24:23.413Z,9.93
2019-03-21T18:26:53.255Z,9.96
2019-03-21T18:29:23.045Z,9.89
2019-03-21T18:31:52.909Z,9.89
2019-03-21T18:34:22.682Z,9.90
2019-03-21T18:36:52.522Z,9.89
2019-03-21T18:39:22.671Z,9.94
2019-03-21T18:41:52.542Z,9.95
2019-03-21T18:44:22.421Z,9.95
2019-03-21T18:46:52.197Z,9.97
2019-03-21T18:49:22.012Z,10.02
2019-03-21T18:51:51.837Z,9.98
2019-03-21T18:54:21.720Z,9.92
2019-03-21T18:56:51.588Z,9.96
2019-03-21T18:59:21.465Z,9.90
2019-03-21T19:01:58.396Z,9.84
2019-03-21T19:04:22.929Z,9.80
2019-03-21T19:06:52.946Z,9.76
2019-03-21T19:09:22.677Z,9.69
2019-03-21T19:11:52.516Z,9.64
2019-03-21T19:14:22.432Z,9.60
2019-03-21T19:16:52.347Z,9.57
2019-03-21T19:19:22.159Z,9.51
2019-03-21T19:21:51.926Z,9.45
2019-03-21T19:24:21.801Z,9.42
2019-03-21T19:26:51.674Z,9.28
2019-03-21T19:29:21.768Z,9.21
2019-03-21T19:31:51.724Z,9.10
2019-03-21T19:34:21.595Z,9.03
2019-03-21T19:36:51.413Z,9.02
2019-03-21T19:39:21.295Z,9.04
2019-03-21T19:41:51.147Z,9.03
2019-03-21T19:44:21.043Z,9.03
2019-03-21T19:46:50.837Z,9.03
2019-03-21T19:49:20.773Z,9.04
2019-03-21T19:51:50.662Z,8.96
2019-03-21T19:54:20.648Z,8.92
2019-03-21T19:56:50.548Z,8.89
2019-03-21T19:59:20.562Z,8.91
2019-03-21T20:01:50.371Z,8.85
2019-03-21T20:04:20.358Z,8.82
2019-03-21T20:06:50.360Z,8.86
2019-03-21T20:09:20.210Z,8.83
2019-03-21T20:11:50.152Z,8.80
2019-03-21T20:14:20.069Z,8.77
2019-03-21T20:16:49.884Z,8.82
2019-03-21T20:19:19.848Z,8.81
2019-03-21T20:21:49.677Z,8.83
2019-03-21T20:24:19.485Z,8.84
2019-03-21T20:26:49.309Z,8.87
2019-03-21T20:29:19.262Z,8.97
2019-03-21T20:31:49.130Z,9.08
2019-03-21T20:34:18.933Z,9.12
2019-03-21T20:36:48.829Z,9.18
2019-03-21T20:39:18.710Z,9.32
2019-03-21T20:41:48.604Z,9.34
2019-03-21T20:44:18.777Z,9.39
2019-03-21T20:46:48.570Z,9.38
2019-03-21T20:49:18.455Z,9.37
2019-03-21T20:51:48.358Z,9.36
2019-03-21T20:54:18.233Z,9.36
2019-03-21T20:56:48.255Z,9.33
2019-03-21T20:59:18.456Z,9.31
2019-03-21T21:01:48.297Z,9.28
2019-03-21T21:04:18.225Z,9.31
2019-03-21T21:06:48.231Z,9.24
2019-03-21T21:09:18.710Z,9.18
2019-03-21T21:11:48.666Z,9.14
2019-03-21T21:14:18.533Z,9.12
2019-03-21T21:16:48.515Z,9.07
2019-03-21T21:19:18.551Z,9.07
2019-03-21T21:21:48.685Z,9.02
2019-03-21T21:24:18.538Z,9.04
2019-03-21T21:26:48.363Z,9.09
2019-03-21T21:29:18.202Z,9.17
2019-03-21T21:31:48.047Z,9.20
2019-03-21T21:34:17.882Z,9.27
2019-03-21T21:36:47.737Z,9.33
2019-03-21T21:39:17.645Z,9.40
2019-03-21T21:41:47.474Z,9.45
2019-03-21T21:44:17.365Z,9.48
2019-03-21T21:46:47.227Z,9.46
2019-03-21T21:49:17.062Z,9.48
2019-03-21T21:51:46.957Z,9.48
2019-03-21T21:54:16.798Z,9.54
2019-03-21T21:56:46.584Z,9.49
2019-03-21T21:59:16.479Z,9.49
2019-03-21T22:01:46.305Z,9.52
2019-03-21T22:04:16.108Z,9.49
2019-03-21T22:06:45.948Z,9.53
2019-03-21T22:09:15.851Z,9.54
2019-03-21T22:11:45.731Z,9.53
2019-03-21T22:14:15.615Z,9.56
2019-03-21T22:16:45.425Z,9.57
2019-03-21T22:19:15.233Z,9.63
2019-03-21T22:21:45.026Z,9.60
2019-03-21T22:24:14.920Z,9.63
2019-03-21T22:26:44.806Z,9.59
2019-03-21T22:29:14.669Z,9.57
2019-03-21T22:31:44.583Z,9.57
2019-03-21T22:34:14.417Z,9.60
2019-03-21T22:36:49.358Z,9.59
2019-03-21T22:39:15.770Z,9.55
2019-03-21T22:41:45.586Z,9.55
2019-03-21T22:44:15.389Z,9.59
2019-03-21T22:46:45.202Z,9.65
2019-03-21T22:49:15.422Z,9.62
2019-03-21T22:51:45.249Z,9.57
2019-03-21T22:54:15.229Z,9.56
2019-03-21T22:56:45.066Z,9.56
2019-03-21T22:59:14.885Z,9.55
2019-03-21T23:01:44.717Z,9.63
2019-03-21T23:04:14.539Z,9.58
2019-03-21T23:06:44.474Z,9.53
2019-03-21T23:09:14.353Z,9.53
2019-03-21T23:11:44.153Z,9.51
2019-03-21T23:14:14.012Z,9.52
2019-03-21T23:16:44.124Z,9.48
2019-03-21T23:19:13.983Z,9.35
2019-03-21T23:21:43.864Z,9.30
2019-03-21T23:24:13.707Z,9.26
2019-03-21T23:26:52.522Z,9.20
2019-03-21T23:29:15.136Z,9.20
2019-03-21T23:31:45.166Z,9.20
2019-03-21T23:34:15.895Z,9.12
2019-03-21T23:36:45.776Z,9.10
2019-03-21T23:39:15.603Z,9.05
2019-03-21T23:41:45.455Z,8.97
2019-03-21T23:44:15.294Z,8.96
2019-03-21T23:46:45.275Z,8.92
2019-03-21T23:49:15.101Z,8.91
2019-03-21T23:51:44.915Z,8.93
2019-03-21T23:54:14.784Z,8.93
2019-03-21T23:56:44.613Z,8.93
2019-03-21T23:59:14.421Z,8.90
